sensor_id;sensor_type;location;lat;lon;timestamp;P1;durP1;ratioP1;P2;durP2;ratioP2
68854;SDS011;69984;-43.570;172.580;2024-01-30T00:02:02;1.05;;;0.50;;
68854;SDS011;69984;-43.570;172.580;2024-01-30T00:04:29;1.48;;;0.70;;
68854;SDS011;69984;-43.570;172.580;2024-01-30T00:06:55;2.35;;;0.52;;
68854;SDS011;69984;-43.570;172.580;2024-01-30T00:09:23;4.13;;;0.60;;
68854;SDS011;69984;-43.570;172.580;2024-01-30T00:11:49;2.72;;;0.60;;
68854;SDS011;69984;-43.570;172.580;2024-01-30T00:14:16;3.70;;;0.50;;
68854;SDS011;69984;-43.570;172.580;2024-01-30T00:16:44;1.92;;;0.40;;
68854;SDS011;69984;-43.570;172.580;2024-01-30T00:19:11;2.03;;;0.50;;
68854;SDS011;69984;-43.570;172.580;2024-01-30T00:21:38;4.30;;;0.50;;
68854;SDS011;69984;-43.570;172.580;2024-01-30T00:24:05;2.53;;;0.93;;
68854;SDS011;69984;-43.570;172.580;2024-01-30T00:26:32;5.65;;;1.05;;
68854;SDS011;69984;-43.570;172.580;2024-01-30T00:28:59;0.73;;;0.30;;
68854;SDS011;69984;-43.570;172.580;2024-01-30T00:31:27;1.60;;;0.77;;
68854;SDS011;69984;-43.570;172.580;2024-01-30T00:33:54;3.30;;;0.60;;
68854;SDS011;69984;-43.570;172.580;2024-01-30T00:36:21;0.90;;;0.35;;
68854;SDS011;69984;-43.570;172.580;2024-01-30T00:38:47;1.90;;;0.77;;
68854;SDS011;69984;-43.570;172.580;2024-01-30T00:41:15;1.58;;;0.43;;
68854;SDS011;69984;-43.570;172.580;2024-01-30T00:43:44;3.65;;;0.70;;
68854;SDS011;69984;-43.570;172.580;2024-01-30T00:46:11;3.17;;;0.38;;
68854;SDS011;69984;-43.570;172.580;2024-01-30T00:48:38;7.65;;;0.77;;
68854;SDS011;69984;-43.570;172.580;2024-01-30T00:51:05;1.85;;;0.40;;
68854;SDS011;69984;-43.570;172.580;2024-01-30T00:53:32;1.10;;;0.50;;
68854;SDS011;69984;-43.570;172.580;2024-01-30T00:55:59;2.03;;;0.32;;
68854;SDS011;69984;-43.570;172.580;2024-01-30T00:58:26;4.30;;;0.98;;
68854;SDS011;69984;-43.570;172.580;2024-01-30T01:00:53;2.28;;;0.30;;
68854;SDS011;69984;-43.570;172.580;2024-01-30T01:03:20;3.15;;;0.50;;
68854;SDS011;69984;-43.570;172.580;2024-01-30T01:05:47;1.75;;;0.32;;
68854;SDS011;69984;-43.570;172.580;2024-01-30T01:08:14;1.63;;;0.50;;
68854;SDS011;69984;-43.570;172.580;2024-01-30T01:10:41;7.28;;;0.50;;
68854;SDS011;69984;-43.570;172.580;2024-01-30T01:13:07;0.50;;;0.28;;
68854;SDS011;69984;-43.570;172.580;2024-01-30T01:15:34;0.65;;;0.30;;
68854;SDS011;69984;-43.570;172.580;2024-01-30T01:18:02;0.52;;;0.30;;
68854;SDS011;69984;-43.570;172.580;2024-01-30T01:20:29;1.23;;;0.50;;
68854;SDS011;69984;-43.570;172.580;2024-01-30T01:22:56;1.02;;;0.30;;
68854;SDS011;69984;-43.570;172.580;2024-01-30T01:25:23;1.00;;;0.45;;
68854;SDS011;69984;-43.570;172.580;2024-01-30T01:27:50;1.25;;;0.38;;
68854;SDS011;69984;-43.570;172.580;2024-01-30T01:30:18;0.40;;;0.40;;
68854;SDS011;69984;-43.570;172.580;2024-01-30T01:32:50;1.73;;;0.40;;
68854;SDS011;69984;-43.570;172.580;2024-01-30T01:35:21;0.85;;;0.40;;
68854;SDS011;69984;-43.570;172.580;2024-01-30T01:37:50;0.95;;;0.30;;
68854;SDS011;69984;-43.570;172.580;2024-01-30T01:40:23;2.40;;;0.35;;
68854;SDS011;69984;-43.570;172.580;2024-01-30T01:42:51;1.88;;;0.95;;
68854;SDS011;69984;-43.570;172.580;2024-01-30T01:45:19;1.38;;;0.30;;
68854;SDS011;69984;-43.570;172.580;2024-01-30T01:47:53;2.85;;;0.50;;
68854;SDS011;69984;-43.570;172.580;2024-01-30T01:50:20;0.68;;;0.20;;
68854;SDS011;69984;-43.570;172.580;2024-01-30T01:52:47;0.82;;;0.30;;
68854;SDS011;69984;-43.570;172.580;2024-01-30T01:55:15;0.20;;;0.20;;
68854;SDS011;69984;-43.570;172.580;2024-01-30T02:00:10;1.40;;;0.45;;
68854;SDS011;69984;-43.570;172.580;2024-01-30T02:02:38;1.15;;;0.30;;
68854;SDS011;69984;-43.570;172.580;2024-01-30T02:05:05;1.45;;;0.35;;
68854;SDS011;69984;-43.570;172.580;2024-01-30T02:10:00;0.95;;;0.20;;
68854;SDS011;69984;-43.570;172.580;2024-01-30T02:12:29;0.15;;;0.10;;
68854;SDS011;69984;-43.570;172.580;2024-01-30T02:14:56;1.90;;;0.35;;
68854;SDS011;69984;-43.570;172.580;2024-01-30T02:17:23;2.72;;;0.35;;
68854;SDS011;69984;-43.570;172.580;2024-01-30T02:19:50;2.35;;;0.35;;
68854;SDS011;69984;-43.570;172.580;2024-01-30T02:22:17;0.93;;;0.40;;
68854;SDS011;69984;-43.570;172.580;2024-01-30T02:24:46;0.45;;;0.22;;
68854;SDS011;69984;-43.570;172.580;2024-01-30T02:27:13;0.75;;;0.20;;
68854;SDS011;69984;-43.570;172.580;2024-01-30T02:29:40;0.57;;;0.17;;
68854;SDS011;69984;-43.570;172.580;2024-01-30T02:32:07;0.77;;;0.20;;
68854;SDS011;69984;-43.570;172.580;2024-01-30T02:34:33;0.45;;;0.13;;
68854;SDS011;69984;-43.570;172.580;2024-01-30T02:37:00;1.45;;;0.45;;
68854;SDS011;69984;-43.570;172.580;2024-01-30T02:39:27;1.65;;;0.40;;
68854;SDS011;69984;-43.570;172.580;2024-01-30T02:41:54;0.68;;;0.40;;
68854;SDS011;69984;-43.570;172.580;2024-01-30T02:44:22;3.25;;;0.30;;
68854;SDS011;69984;-43.570;172.580;2024-01-30T02:46:49;1.25;;;0.20;;
68854;SDS011;69984;-43.570;172.580;2024-01-30T02:49:16;2.22;;;0.30;;
68854;SDS011;69984;-43.570;172.580;2024-01-30T02:51:43;3.38;;;0.22;;
68854;SDS011;69984;-43.570;172.580;2024-01-30T02:54:10;1.15;;;0.32;;
68854;SDS011;69984;-43.570;172.580;2024-01-30T02:56:37;0.55;;;0.30;;
68854;SDS011;69984;-43.570;172.580;2024-01-30T02:59:04;2.47;;;0.30;;
68854;SDS011;69984;-43.570;172.580;2024-01-30T03:01:30;6.55;;;0.30;;
68854;SDS011;69984;-43.570;172.580;2024-01-30T03:03:57;1.58;;;0.20;;
68854;SDS011;69984;-43.570;172.580;2024-01-30T03:06:24;0.50;;;0.15;;
68854;SDS011;69984;-43.570;172.580;2024-01-30T03:08:51;0.10;;;0.10;;
68854;SDS011;69984;-43.570;172.580;2024-01-30T03:11:18;1.33;;;0.10;;
68854;SDS011;69984;-43.570;172.580;2024-01-30T03:13:45;0.90;;;0.15;;
68854;SDS011;69984;-43.570;172.580;2024-01-30T03:16:12;1.00;;;0.17;;
68854;SDS011;69984;-43.570;172.580;2024-01-30T03:18:39;0.68;;;0.15;;
68854;SDS011;69984;-43.570;172.580;2024-01-30T03:21:06;2.38;;;0.30;;
68854;SDS011;69984;-43.570;172.580;2024-01-30T03:23:33;1.33;;;0.20;;
68854;SDS011;69984;-43.570;172.580;2024-01-30T03:25:59;1.02;;;0.30;;
68854;SDS011;69984;-43.570;172.580;2024-01-30T03:28:26;0.50;;;0.17;;
68854;SDS011;69984;-43.570;172.580;2024-01-30T03:30:53;0.43;;;0.20;;
68854;SDS011;69984;-43.570;172.580;2024-01-30T03:33:20;0.70;;;0.30;;
68854;SDS011;69984;-43.570;172.580;2024-01-30T03:35:47;1.65;;;0.20;;
68854;SDS011;69984;-43.570;172.580;2024-01-30T03:38:14;1.65;;;0.20;;
68854;SDS011;69984;-43.570;172.580;2024-01-30T03:40:41;0.10;;;0.10;;
68854;SDS011;69984;-43.570;172.580;2024-01-30T03:43:08;0.30;;;0.20;;
68854;SDS011;69984;-43.570;172.580;2024-01-30T03:45:35;0.77;;;0.32;;
68854;SDS011;69984;-43.570;172.580;2024-01-30T03:48:01;2.78;;;0.20;;
68854;SDS011;69984;-43.570;172.580;2024-01-30T03:50:29;2.97;;;0.20;;
68854;SDS011;69984;-43.570;172.580;2024-01-30T03:52:55;0.25;;;0.10;;
68854;SDS011;69984;-43.570;172.580;2024-01-30T03:55:22;0.32;;;0.10;;
68854;SDS011;69984;-43.570;172.580;2024-01-30T03:57:49;2.15;;;0.28;;
68854;SDS011;69984;-43.570;172.580;2024-01-30T04:00:16;2.45;;;0.30;;
68854;SDS011;69984;-43.570;172.580;2024-01-30T04:02:44;1.13;;;0.10;;
68854;SDS011;69984;-43.570;172.580;2024-01-30T04:05:11;0.22;;;0.20;;
68854;SDS011;69984;-43.570;172.580;2024-01-30T04:07:38;0.45;;;0.20;;
68854;SDS011;69984;-43.570;172.580;2024-01-30T04:10:05;1.35;;;0.20;;
68854;SDS011;69984;-43.570;172.580;2024-01-30T04:12:32;0.63;;;0.20;;
68854;SDS011;69984;-43.570;172.580;2024-01-30T04:14:59;0.75;;;0.20;;
68854;SDS011;69984;-43.570;172.580;2024-01-30T04:17:26;1.20;;;0.10;;
68854;SDS011;69984;-43.570;172.580;2024-01-30T04:19:54;0.98;;;0.32;;
68854;SDS011;69984;-43.570;172.580;2024-01-30T04:22:21;1.08;;;0.30;;
68854;SDS011;69984;-43.570;172.580;2024-01-30T04:24:48;1.70;;;0.20;;
68854;SDS011;69984;-43.570;172.580;2024-01-30T04:27:15;0.65;;;0.30;;
68854;SDS011;69984;-43.570;172.580;2024-01-30T04:29:42;4.57;;;0.50;;
68854;SDS011;69984;-43.570;172.580;2024-01-30T04:32:09;1.70;;;0.38;;
68854;SDS011;69984;-43.570;172.580;2024-01-30T04:34:36;1.25;;;0.25;;
68854;SDS011;69984;-43.570;172.580;2024-01-30T04:37:03;0.50;;;0.10;;
68854;SDS011;69984;-43.570;172.580;2024-01-30T04:39:30;1.40;;;0.70;;
68854;SDS011;69984;-43.570;172.580;2024-01-30T04:41:59;0.85;;;0.20;;
68854;SDS011;69984;-43.570;172.580;2024-01-30T04:44:26;2.13;;;0.47;;
68854;SDS011;69984;-43.570;172.580;2024-01-30T04:46:53;0.63;;;0.32;;
68854;SDS011;69984;-43.570;172.580;2024-01-30T04:49:24;1.60;;;0.20;;
68854;SDS011;69984;-43.570;172.580;2024-01-30T04:51:51;1.63;;;0.40;;
68854;SDS011;69984;-43.570;172.580;2024-01-30T04:54:18;2.00;;;0.40;;
68854;SDS011;69984;-43.570;172.580;2024-01-30T04:56:45;0.93;;;0.35;;
68854;SDS011;69984;-43.570;172.580;2024-01-30T04:59:11;1.27;;;0.32;;
68854;SDS011;69984;-43.570;172.580;2024-01-30T05:01:38;1.08;;;0.43;;
68854;SDS011;69984;-43.570;172.580;2024-01-30T05:04:08;1.85;;;0.40;;
68854;SDS011;69984;-43.570;172.580;2024-01-30T05:06:36;2.45;;;0.40;;
68854;SDS011;69984;-43.570;172.580;2024-01-30T05:09:03;3.88;;;0.45;;
68854;SDS011;69984;-43.570;172.580;2024-01-30T05:11:30;3.42;;;1.80;;
68854;SDS011;69984;-43.570;172.580;2024-01-30T05:13:57;5.47;;;0.50;;
68854;SDS011;69984;-43.570;172.580;2024-01-30T05:16:24;1.20;;;0.43;;
68854;SDS011;69984;-43.570;172.580;2024-01-30T05:18:51;2.72;;;0.30;;
68854;SDS011;69984;-43.570;172.580;2024-01-30T05:21:18;1.33;;;0.35;;
68854;SDS011;69984;-43.570;172.580;2024-01-30T05:23:45;2.75;;;0.30;;
68854;SDS011;69984;-43.570;172.580;2024-01-30T05:26:12;2.58;;;0.40;;
68854;SDS011;69984;-43.570;172.580;2024-01-30T05:28:39;1.13;;;0.40;;
68854;SDS011;69984;-43.570;172.580;2024-01-30T05:31:06;1.85;;;0.30;;
68854;SDS011;69984;-43.570;172.580;2024-01-30T05:33:33;0.70;;;0.20;;
68854;SDS011;69984;-43.570;172.580;2024-01-30T05:36:00;2.47;;;0.45;;
68854;SDS011;69984;-43.570;172.580;2024-01-30T05:38:27;0.73;;;0.20;;
68854;SDS011;69984;-43.570;172.580;2024-01-30T05:40:57;2.45;;;0.32;;
68854;SDS011;69984;-43.570;172.580;2024-01-30T05:43:24;0.52;;;0.20;;
68854;SDS011;69984;-43.570;172.580;2024-01-30T05:45:52;0.90;;;0.15;;
68854;SDS011;69984;-43.570;172.580;2024-01-30T05:48:19;0.68;;;0.20;;
68854;SDS011;69984;-43.570;172.580;2024-01-30T05:50:46;0.70;;;0.10;;
68854;SDS011;69984;-43.570;172.580;2024-01-30T05:53:13;0.75;;;0.22;;
68854;SDS011;69984;-43.570;172.580;2024-01-30T05:55:40;1.20;;;0.20;;
68854;SDS011;69984;-43.570;172.580;2024-01-30T05:58:06;0.55;;;0.10;;
68854;SDS011;69984;-43.570;172.580;2024-01-30T06:00:33;2.75;;;0.32;;
68854;SDS011;69984;-43.570;172.580;2024-01-30T06:03:00;1.58;;;0.10;;
68854;SDS011;69984;-43.570;172.580;2024-01-30T06:05:27;1.50;;;0.10;;
68854;SDS011;69984;-43.570;172.580;2024-01-30T06:07:54;0.82;;;0.30;;
68854;SDS011;69984;-43.570;172.580;2024-01-30T06:10:21;0.75;;;0.30;;
68854;SDS011;69984;-43.570;172.580;2024-01-30T06:12:48;0.10;;;0.10;;
68854;SDS011;69984;-43.570;172.580;2024-01-30T06:15:15;0.52;;;0.20;;
68854;SDS011;69984;-43.570;172.580;2024-01-30T06:17:42;0.32;;;0.03;;
68854;SDS011;69984;-43.570;172.580;2024-01-30T06:20:09;2.13;;;0.28;;
68854;SDS011;69984;-43.570;172.580;2024-01-30T06:22:36;0.43;;;0.20;;
68854;SDS011;69984;-43.570;172.580;2024-01-30T06:25:03;0.30;;;0.25;;
68854;SDS011;69984;-43.570;172.580;2024-01-30T06:27:30;0.47;;;0.47;;
68854;SDS011;69984;-43.570;172.580;2024-01-30T06:29:57;0.90;;;0.10;;
68854;SDS011;69984;-43.570;172.580;2024-01-30T06:32:24;0.52;;;0.10;;
68854;SDS011;69984;-43.570;172.580;2024-01-30T06:34:50;0.40;;;0.20;;
68854;SDS011;69984;-43.570;172.580;2024-01-30T06:37:17;1.30;;;0.20;;
68854;SDS011;69984;-43.570;172.580;2024-01-30T06:39:44;0.63;;;0.25;;
68854;SDS011;69984;-43.570;172.580;2024-01-30T06:42:12;8.32;;;0.90;;
68854;SDS011;69984;-43.570;172.580;2024-01-30T06:44:39;1.38;;;0.20;;
68854;SDS011;69984;-43.570;172.580;2024-01-30T06:47:06;0.15;;;0.10;;
68854;SDS011;69984;-43.570;172.580;2024-01-30T06:49:33;1.75;;;0.40;;
68854;SDS011;69984;-43.570;172.580;2024-01-30T06:52:00;1.27;;;0.38;;
68854;SDS011;69984;-43.570;172.580;2024-01-30T06:54:27;0.25;;;0.05;;
68854;SDS011;69984;-43.570;172.580;2024-01-30T06:56:54;0.47;;;0.20;;
68854;SDS011;69984;-43.570;172.580;2024-01-30T06:59:21;0.85;;;0.40;;
68854;SDS011;69984;-43.570;172.580;2024-01-30T07:01:48;1.48;;;0.22;;
68854;SDS011;69984;-43.570;172.580;2024-01-30T07:04:15;0.85;;;0.20;;
68854;SDS011;69984;-43.570;172.580;2024-01-30T07:06:42;0.43;;;0.20;;
68854;SDS011;69984;-43.570;172.580;2024-01-30T07:09:09;1.48;;;0.20;;
68854;SDS011;69984;-43.570;172.580;2024-01-30T07:11:36;0.30;;;0.13;;
68854;SDS011;69984;-43.570;172.580;2024-01-30T07:14:03;0.60;;;0.30;;
68854;SDS011;69984;-43.570;172.580;2024-01-30T07:16:30;1.50;;;0.40;;
68854;SDS011;69984;-43.570;172.580;2024-01-30T07:18:57;1.90;;;0.30;;
68854;SDS011;69984;-43.570;172.580;2024-01-30T07:21:24;1.02;;;0.10;;
68854;SDS011;69984;-43.570;172.580;2024-01-30T07:23:57;0.45;;;0.35;;
68854;SDS011;69984;-43.570;172.580;2024-01-30T07:26:24;1.45;;;0.30;;
68854;SDS011;69984;-43.570;172.580;2024-01-30T07:28:51;0.63;;;0.20;;
68854;SDS011;69984;-43.570;172.580;2024-01-30T07:31:18;0.63;;;0.32;;
68854;SDS011;69984;-43.570;172.580;2024-01-30T07:33:46;0.90;;;0.22;;
68854;SDS011;69984;-43.570;172.580;2024-01-30T07:36:13;0.30;;;0.30;;
68854;SDS011;69984;-43.570;172.580;2024-01-30T07:38:40;0.20;;;0.20;;
68854;SDS011;69984;-43.570;172.580;2024-01-30T07:41:07;0.30;;;0.30;;
68854;SDS011;69984;-43.570;172.580;2024-01-30T07:43:34;0.52;;;0.30;;
68854;SDS011;69984;-43.570;172.580;2024-01-30T07:46:01;1.35;;;0.40;;
68854;SDS011;69984;-43.570;172.580;2024-01-30T07:48:28;1.00;;;0.32;;
68854;SDS011;69984;-43.570;172.580;2024-01-30T07:50:55;0.30;;;0.30;;
68854;SDS011;69984;-43.570;172.580;2024-01-30T07:53:22;1.13;;;0.30;;
68854;SDS011;69984;-43.570;172.580;2024-01-30T07:55:49;0.30;;;0.30;;
68854;SDS011;69984;-43.570;172.580;2024-01-30T07:58:16;1.65;;;0.30;;
68854;SDS011;69984;-43.570;172.580;2024-01-30T08:00:43;2.17;;;0.50;;
68854;SDS011;69984;-43.570;172.580;2024-01-30T08:03:10;2.40;;;0.30;;
68854;SDS011;69984;-43.570;172.580;2024-01-30T08:05:38;0.20;;;0.20;;
68854;SDS011;69984;-43.570;172.580;2024-01-30T08:08:05;0.50;;;0.30;;
68854;SDS011;69984;-43.570;172.580;2024-01-30T08:10:32;1.48;;;0.38;;
68854;SDS011;69984;-43.570;172.580;2024-01-30T08:12:59;2.58;;;0.40;;
68854;SDS011;69984;-43.570;172.580;2024-01-30T08:15:26;2.42;;;0.30;;
68854;SDS011;69984;-43.570;172.580;2024-01-30T08:17:53;2.05;;;0.28;;
68854;SDS011;69984;-43.570;172.580;2024-01-30T08:20:23;0.57;;;0.28;;
68854;SDS011;69984;-43.570;172.580;2024-01-30T08:22:51;1.40;;;0.30;;
68854;SDS011;69984;-43.570;172.580;2024-01-30T08:25:18;0.60;;;0.35;;
68854;SDS011;69984;-43.570;172.580;2024-01-30T08:27:45;0.43;;;0.15;;
68854;SDS011;69984;-43.570;172.580;2024-01-30T08:30:12;1.08;;;0.40;;
68854;SDS011;69984;-43.570;172.580;2024-01-30T08:32:39;0.52;;;0.30;;
68854;SDS011;69984;-43.570;172.580;2024-01-30T08:35:06;1.83;;;0.30;;
68854;SDS011;69984;-43.570;172.580;2024-01-30T08:37:34;0.50;;;0.30;;
68854;SDS011;69984;-43.570;172.580;2024-01-30T08:40:01;0.75;;;0.30;;
68854;SDS011;69984;-43.570;172.580;2024-01-30T08:42:30;1.65;;;0.40;;
68854;SDS011;69984;-43.570;172.580;2024-01-30T08:44:57;1.52;;;0.38;;
68854;SDS011;69984;-43.570;172.580;2024-01-30T08:47:24;3.25;;;0.52;;
68854;SDS011;69984;-43.570;172.580;2024-01-30T08:49:51;2.15;;;0.40;;
68854;SDS011;69984;-43.570;172.580;2024-01-30T08:52:18;0.57;;;0.40;;
68854;SDS011;69984;-43.570;172.580;2024-01-30T08:54:44;0.20;;;0.20;;
68854;SDS011;69984;-43.570;172.580;2024-01-30T08:57:11;1.25;;;0.28;;
68854;SDS011;69984;-43.570;172.580;2024-01-30T08:59:38;0.60;;;0.30;;
68854;SDS011;69984;-43.570;172.580;2024-01-30T09:02:05;0.43;;;0.30;;
68854;SDS011;69984;-43.570;172.580;2024-01-30T09:04:32;0.75;;;0.35;;
68854;SDS011;69984;-43.570;172.580;2024-01-30T09:06:59;0.55;;;0.20;;
68854;SDS011;69984;-43.570;172.580;2024-01-30T09:09:26;0.32;;;0.20;;
68854;SDS011;69984;-43.570;172.580;2024-01-30T09:11:53;2.10;;;0.60;;
68854;SDS011;69984;-43.570;172.580;2024-01-30T09:14:20;2.33;;;0.22;;
68854;SDS011;69984;-43.570;172.580;2024-01-30T09:16:47;1.15;;;0.40;;
68854;SDS011;69984;-43.570;172.580;2024-01-30T09:19:14;0.95;;;0.40;;
68854;SDS011;69984;-43.570;172.580;2024-01-30T09:21:41;1.27;;;0.43;;
68854;SDS011;69984;-43.570;172.580;2024-01-30T09:24:08;1.65;;;0.20;;
68854;SDS011;69984;-43.570;172.580;2024-01-30T09:26:35;0.75;;;0.35;;
68854;SDS011;69984;-43.570;172.580;2024-01-30T09:29:02;0.20;;;0.20;;
68854;SDS011;69984;-43.570;172.580;2024-01-30T09:31:29;0.30;;;0.30;;
68854;SDS011;69984;-43.570;172.580;2024-01-30T09:33:56;1.20;;;0.20;;
68854;SDS011;69984;-43.570;172.580;2024-01-30T09:36:23;2.42;;;0.50;;
68854;SDS011;69984;-43.570;172.580;2024-01-30T09:38:50;1.25;;;0.20;;
68854;SDS011;69984;-43.570;172.580;2024-01-30T09:41:17;1.08;;;0.40;;
68854;SDS011;69984;-43.570;172.580;2024-01-30T09:43:47;1.00;;;0.30;;
68854;SDS011;69984;-43.570;172.580;2024-01-30T09:46:16;0.22;;;0.22;;
68854;SDS011;69984;-43.570;172.580;2024-01-30T09:48:46;0.28;;;0.28;;
68854;SDS011;69984;-43.570;172.580;2024-01-30T09:51:16;1.45;;;0.50;;
68854;SDS011;69984;-43.570;172.580;2024-01-30T09:53:45;1.05;;;0.30;;
68854;SDS011;69984;-43.570;172.580;2024-01-30T09:56:15;0.20;;;0.20;;
68854;SDS011;69984;-43.570;172.580;2024-01-30T09:58:43;0.38;;;0.22;;
68854;SDS011;69984;-43.570;172.580;2024-01-30T10:01:10;2.33;;;0.73;;
68854;SDS011;69984;-43.570;172.580;2024-01-30T10:03:37;1.10;;;0.40;;
68854;SDS011;69984;-43.570;172.580;2024-01-30T10:06:04;1.50;;;0.30;;
68854;SDS011;69984;-43.570;172.580;2024-01-30T10:08:31;2.35;;;0.40;;
68854;SDS011;69984;-43.570;172.580;2024-01-30T10:10:58;3.30;;;0.60;;
68854;SDS011;69984;-43.570;172.580;2024-01-30T10:13:27;1.35;;;0.30;;
68854;SDS011;69984;-43.570;172.580;2024-01-30T10:15:54;1.58;;;0.57;;
68854;SDS011;69984;-43.570;172.580;2024-01-30T10:18:24;3.92;;;0.40;;
68854;SDS011;69984;-43.570;172.580;2024-01-30T10:20:51;1.10;;;0.60;;
68854;SDS011;69984;-43.570;172.580;2024-01-30T10:23:18;0.77;;;0.40;;
68854;SDS011;69984;-43.570;172.580;2024-01-30T10:25:45;2.35;;;0.63;;
68854;SDS011;69984;-43.570;172.580;2024-01-30T10:28:13;0.70;;;0.30;;
68854;SDS011;69984;-43.570;172.580;2024-01-30T10:30:40;0.40;;;0.40;;
68854;SDS011;69984;-43.570;172.580;2024-01-30T10:33:07;1.63;;;0.30;;
68854;SDS011;69984;-43.570;172.580;2024-01-30T10:35:33;0.47;;;0.40;;
68854;SDS011;69984;-43.570;172.580;2024-01-30T10:38:00;6.53;;;0.43;;
68854;SDS011;69984;-43.570;172.580;2024-01-30T10:40:28;1.13;;;0.30;;
68854;SDS011;69984;-43.570;172.580;2024-01-30T10:42:57;0.68;;;0.40;;
68854;SDS011;69984;-43.570;172.580;2024-01-30T10:45:27;1.00;;;0.32;;
68854;SDS011;69984;-43.570;172.580;2024-01-30T10:47:57;0.88;;;0.60;;
68854;SDS011;69984;-43.570;172.580;2024-01-30T10:50:25;0.90;;;0.50;;
68854;SDS011;69984;-43.570;172.580;2024-01-30T10:52:54;1.75;;;0.50;;
68854;SDS011;69984;-43.570;172.580;2024-01-30T10:55:22;1.00;;;0.40;;
68854;SDS011;69984;-43.570;172.580;2024-01-30T10:57:49;0.80;;;0.30;;
68854;SDS011;69984;-43.570;172.580;2024-01-30T11:00:16;1.05;;;0.82;;
68854;SDS011;69984;-43.570;172.580;2024-01-30T11:02:48;1.70;;;0.45;;
68854;SDS011;69984;-43.570;172.580;2024-01-30T11:05:15;0.85;;;0.40;;
68854;SDS011;69984;-43.570;172.580;2024-01-30T11:07:52;0.38;;;0.38;;
68854;SDS011;69984;-43.570;172.580;2024-01-30T11:10:19;1.85;;;0.70;;
68854;SDS011;69984;-43.570;172.580;2024-01-30T11:12:46;1.02;;;0.40;;
68854;SDS011;69984;-43.570;172.580;2024-01-30T11:15:16;0.47;;;0.40;;
68854;SDS011;69984;-43.570;172.580;2024-01-30T11:23:02;1.48;;;0.63;;
68854;SDS011;69984;-43.570;172.580;2024-01-30T11:25:32;1.25;;;0.57;;
68854;SDS011;69984;-43.570;172.580;2024-01-30T11:28:00;1.75;;;0.40;;
68854;SDS011;69984;-43.570;172.580;2024-01-30T11:30:31;0.30;;;0.20;;
68854;SDS011;69984;-43.570;172.580;2024-01-30T11:35:37;3.42;;;0.38;;
68854;SDS011;69984;-43.570;172.580;2024-01-30T11:38:06;1.85;;;0.40;;
68854;SDS011;69984;-43.570;172.580;2024-01-30T11:40:34;1.45;;;0.50;;
68854;SDS011;69984;-43.570;172.580;2024-01-30T11:43:03;1.98;;;0.38;;
68854;SDS011;69984;-43.570;172.580;2024-01-30T11:45:31;0.57;;;0.28;;
68854;SDS011;69984;-43.570;172.580;2024-01-30T11:47:59;0.40;;;0.40;;
68854;SDS011;69984;-43.570;172.580;2024-01-30T11:50:32;0.55;;;0.38;;
68854;SDS011;69984;-43.570;172.580;2024-01-30T11:53:00;2.65;;;1.00;;
68854;SDS011;69984;-43.570;172.580;2024-01-30T11:55:28;2.42;;;0.65;;
68854;SDS011;69984;-43.570;172.580;2024-01-30T12:00:24;3.03;;;0.43;;
68854;SDS011;69984;-43.570;172.580;2024-01-30T12:02:51;4.43;;;0.40;;
68854;SDS011;69984;-43.570;172.580;2024-01-30T12:05:27;1.00;;;0.47;;
68854;SDS011;69984;-43.570;172.580;2024-01-30T12:07:55;0.60;;;0.35;;
68854;SDS011;69984;-43.570;172.580;2024-01-30T12:10:24;3.28;;;0.85;;
68854;SDS011;69984;-43.570;172.580;2024-01-30T12:12:52;7.18;;;0.70;;
68854;SDS011;69984;-43.570;172.580;2024-01-30T12:15:21;2.53;;;0.55;;
68854;SDS011;69984;-43.570;172.580;2024-01-30T12:17:48;7.80;;;1.05;;
68854;SDS011;69984;-43.570;172.580;2024-01-30T12:20:18;1.75;;;0.43;;
68854;SDS011;69984;-43.570;172.580;2024-01-30T12:22:47;6.32;;;0.63;;
68854;SDS011;69984;-43.570;172.580;2024-01-30T12:25:16;4.88;;;0.80;;
68854;SDS011;69984;-43.570;172.580;2024-01-30T12:27:45;5.35;;;0.75;;
68854;SDS011;69984;-43.570;172.580;2024-01-30T12:30:15;2.67;;;0.75;;
68854;SDS011;69984;-43.570;172.580;2024-01-30T12:32:44;6.32;;;0.80;;
68854;SDS011;69984;-43.570;172.580;2024-01-30T12:35:18;1.42;;;0.70;;
68854;SDS011;69984;-43.570;172.580;2024-01-30T12:37:47;0.73;;;0.52;;
68854;SDS011;69984;-43.570;172.580;2024-01-30T12:40:15;5.55;;;1.13;;
68854;SDS011;69984;-43.570;172.580;2024-01-30T12:42:42;2.45;;;0.60;;
68854;SDS011;69984;-43.570;172.580;2024-01-30T12:45:14;1.27;;;1.20;;
68854;SDS011;69984;-43.570;172.580;2024-01-30T12:47:41;6.32;;;1.08;;
68854;SDS011;69984;-43.570;172.580;2024-01-30T12:50:08;3.35;;;0.90;;
68854;SDS011;69984;-43.570;172.580;2024-01-30T12:52:35;4.32;;;0.75;;
68854;SDS011;69984;-43.570;172.580;2024-01-30T12:55:03;2.45;;;0.73;;
68854;SDS011;69984;-43.570;172.580;2024-01-30T12:57:30;2.58;;;0.77;;
68854;SDS011;69984;-43.570;172.580;2024-01-30T12:59:57;3.75;;;0.90;;
68854;SDS011;69984;-43.570;172.580;2024-01-30T13:02:24;3.55;;;1.17;;
68854;SDS011;69984;-43.570;172.580;2024-01-30T13:05:00;1.02;;;0.90;;
68854;SDS011;69984;-43.570;172.580;2024-01-30T13:07:27;3.92;;;1.00;;
68854;SDS011;69984;-43.570;172.580;2024-01-30T13:09:54;3.92;;;1.45;;
68854;SDS011;69984;-43.570;172.580;2024-01-30T13:12:21;4.40;;;1.30;;
68854;SDS011;69984;-43.570;172.580;2024-01-30T13:14:48;6.43;;;1.17;;
68854;SDS011;69984;-43.570;172.580;2024-01-30T13:17:15;5.45;;;1.30;;
68854;SDS011;69984;-43.570;172.580;2024-01-30T13:19:42;16.90;;;2.10;;
68854;SDS011;69984;-43.570;172.580;2024-01-30T13:22:08;3.17;;;1.23;;
68854;SDS011;69984;-43.570;172.580;2024-01-30T13:24:35;6.50;;;1.98;;
68854;SDS011;69984;-43.570;172.580;2024-01-30T13:27:02;5.78;;;1.45;;
68854;SDS011;69984;-43.570;172.580;2024-01-30T13:29:31;5.57;;;1.60;;
68854;SDS011;69984;-43.570;172.580;2024-01-30T13:31:58;5.22;;;1.25;;
68854;SDS011;69984;-43.570;172.580;2024-01-30T13:34:25;7.65;;;1.70;;
68854;SDS011;69984;-43.570;172.580;2024-01-30T13:36:52;4.95;;;1.48;;
68854;SDS011;69984;-43.570;172.580;2024-01-30T13:39:19;5.15;;;1.40;;
68854;SDS011;69984;-43.570;172.580;2024-01-30T13:41:46;3.00;;;1.40;;
68854;SDS011;69984;-43.570;172.580;2024-01-30T13:44:14;2.25;;;1.20;;
68854;SDS011;69984;-43.570;172.580;2024-01-30T13:46:42;2.90;;;1.13;;
68854;SDS011;69984;-43.570;172.580;2024-01-30T13:49:09;3.10;;;0.98;;
68854;SDS011;69984;-43.570;172.580;2024-01-30T13:51:36;2.42;;;1.08;;
68854;SDS011;69984;-43.570;172.580;2024-01-30T13:54:02;3.80;;;0.95;;
68854;SDS011;69984;-43.570;172.580;2024-01-30T13:56:30;2.78;;;0.90;;
68854;SDS011;69984;-43.570;172.580;2024-01-30T13:58:57;3.45;;;1.15;;
68854;SDS011;69984;-43.570;172.580;2024-01-30T14:01:25;3.60;;;1.20;;
68854;SDS011;69984;-43.570;172.580;2024-01-30T14:03:52;1.33;;;1.08;;
68854;SDS011;69984;-43.570;172.580;2024-01-30T14:06:19;2.90;;;1.17;;
68854;SDS011;69984;-43.570;172.580;2024-01-30T14:08:46;2.30;;;1.25;;
68854;SDS011;69984;-43.570;172.580;2024-01-30T14:11:13;4.68;;;1.10;;
68854;SDS011;69984;-43.570;172.580;2024-01-30T14:13:40;3.47;;;1.20;;
68854;SDS011;69984;-43.570;172.580;2024-01-30T14:16:07;3.45;;;1.00;;
68854;SDS011;69984;-43.570;172.580;2024-01-30T14:18:34;1.80;;;0.98;;
68854;SDS011;69984;-43.570;172.580;2024-01-30T14:21:01;2.78;;;1.10;;
68854;SDS011;69984;-43.570;172.580;2024-01-30T14:23:28;4.50;;;1.52;;
68854;SDS011;69984;-43.570;172.580;2024-01-30T14:25:55;2.65;;;1.13;;